createdAt,value
2019-02-08T00:02:24.568Z,81.53
2019-02-08T00:07:26.868Z,81.55
2019-02-08T00:12:29.316Z,81.68
2019-02-08T00:17:31.622Z,81.03
2019-02-08T00:22:33.657Z,80.37
2019-02-08T00:27:38.936Z,80.22
2019-02-08T00:32:43.504Z,80.02
2019-02-08T00:37:45.528Z,79.97
2019-02-08T00:42:47.540Z,79.97
2019-02-08T00:47:51.818Z,80.43
2019-02-08T00:52:55.194Z,79.91
2019-02-08T00:57:57.172Z,80.50
2019-02-08T01:03:01.585Z,80.39
2019-02-08T01:08:05.548Z,80.73
2019-02-08T01:13:07.604Z,79.33
2019-02-08T01:18:09.663Z,79.49
2019-02-08T01:23:11.812Z,78.68
2019-02-08T01:28:14.517Z,79.01
2019-02-08T01:33:16.657Z,78.37
2019-02-08T01:38:18.669Z,78.99
2019-02-08T01:43:23.482Z,79.73
2019-02-08T01:48:30.195Z,79.28
2019-02-08T01:53:34.163Z,78.92
2019-02-08T01:58:36.419Z,79.16
2019-02-08T02:03:38.705Z,78.78
2019-02-08T02:08:40.779Z,79.33
2019-02-08T02:13:42.962Z,79.95
2019-02-08T02:18:45.001Z,79.20
2019-02-08T02:23:47.244Z,78.84
2019-02-08T02:28:49.246Z,79.18
2019-02-08T02:33:51.258Z,79.78
2019-02-08T02:38:53.316Z,79.36
2019-02-08T02:43:55.486Z,78.79
2019-02-08T02:48:57.523Z,78.44
2019-02-08T02:54:04.650Z,78.66
2019-02-08T02:59:06.426Z,79.39
2019-02-08T03:04:12.655Z,80.14
2019-02-08T03:09:14.689Z,82.12
2019-02-08T03:14:18.569Z,83.24
2019-02-08T03:19:20.608Z,84.31
2019-02-08T03:24:22.689Z,85.04
2019-02-08T03:29:24.733Z,84.24
2019-02-08T03:34:27.258Z,84.58
2019-02-08T03:39:29.269Z,84.88
2019-02-08T03:44:31.592Z,85.60
2019-02-08T03:49:33.653Z,84.93
2019-02-08T03:54:35.788Z,85.10
2019-02-08T03:59:37.883Z,85.20
2019-02-08T04:04:40.055Z,85.03
2019-02-08T04:09:42.080Z,85.60
2019-02-08T04:14:44.386Z,84.65
2019-02-08T04:19:46.399Z,84.49
2019-02-08T04:24:48.649Z,85.14
2019-02-08T04:29:50.686Z,85.59
2019-02-08T04:34:54.569Z,85.16
2019-02-08T04:39:56.588Z,85.04
2019-02-08T04:44:58.694Z,85.30
2019-02-08T04:50:00.747Z,84.89
2019-02-08T04:55:05.843Z,84.75
2019-02-08T05:00:28.985Z,84.56
2019-02-08T05:05:31.163Z,84.32
2019-02-08T05:10:33.257Z,84.17
2019-02-08T05:15:35.444Z,83.10
2019-02-08T05:20:37.463Z,83.29
2019-02-08T05:25:40.658Z,83.53
2019-02-08T05:30:42.700Z,83.53
2019-02-08T05:35:44.799Z,83.63
2019-02-08T05:40:46.826Z,83.39
2019-02-08T05:45:48.867Z,83.75
2019-02-08T05:50:53.033Z,84.09
2019-02-08T05:55:55.100Z,83.92
2019-02-08T06:00:58.062Z,84.37
2019-02-08T06:06:00.175Z,84.54
2019-02-08T06:11:02.194Z,84.18
2019-02-08T06:16:04.270Z,83.81
2019-02-08T06:21:06.292Z,83.39
2019-02-08T06:26:08.473Z,83.19
2019-02-08T06:31:10.515Z,82.69
2019-02-08T06:36:12.546Z,82.52
2019-02-08T06:41:14.629Z,83.12
2019-02-08T06:46:16.977Z,83.70
2019-02-08T06:51:18.969Z,82.81
2019-02-08T06:56:39.498Z,82.99
2019-02-08T07:02:09.056Z,82.12
2019-02-08T07:07:27.108Z,82.54
2019-02-08T07:12:49.350Z,82.32
2019-02-08T07:18:20.324Z,83.14
2019-02-08T07:24:01.550Z,82.96
2019-02-08T07:29:29.102Z,83.63
2019-02-08T07:34:46.660Z,83.52
2019-02-08T07:40:13.642Z,84.08
2019-02-08T07:45:21.523Z,83.69
2019-02-08T07:51:01.217Z,83.38
2019-02-08T07:56:22.380Z,82.86
2019-02-08T08:01:45.713Z,83.15
2019-02-08T08:07:10.263Z,83.24
2019-02-08T08:12:31.909Z,84.32
2019-02-08T08:17:53.901Z,85.06
2019-02-08T08:23:09.310Z,84.73
2019-02-08T08:28:33.515Z,84.54
2019-02-08T08:33:55.175Z,84.02
2019-02-08T08:39:33.607Z,83.92
2019-02-08T08:45:30.040Z,84.12
2019-02-08T08:51:08.908Z,84.76
2019-02-08T08:56:36.864Z,84.35
2019-02-08T09:02:35.953Z,83.51
2019-02-08T09:08:21.540Z,83.16
2019-02-08T09:13:50.701Z,83.94
2019-02-08T09:19:12.944Z,83.73
2019-02-08T09:24:54.090Z,84.01
2019-02-08T09:30:29.976Z,83.11
2019-02-08T09:36:26.342Z,83.38
2019-02-08T09:42:13.625Z,83.19
2019-02-08T09:47:52.345Z,82.41
2019-02-08T09:53:40.469Z,82.32
2019-02-08T09:59:08.147Z,82.46
2019-02-08T10:04:34.495Z,81.24
2019-02-08T10:10:14.156Z,81.22
2019-02-08T10:16:00.926Z,81.66
2019-02-08T10:21:40.213Z,80.26
2019-02-08T10:27:27.421Z,80.95
2019-02-08T10:33:05.975Z,80.38
2019-02-08T10:38:57.876Z,80.30
2019-02-08T10:44:54.074Z,80.78
2019-02-08T10:50:35.195Z,80.31
2019-02-08T10:56:25.543Z,80.41
2019-02-08T11:02:05.486Z,80.47
2019-02-08T11:07:42.300Z,80.83
2019-02-08T11:13:28.299Z,79.15
2019-02-08T11:19:08.827Z,79.67
2019-02-08T11:24:11.007Z,79.67
2019-02-08T11:29:13.071Z,78.47
2019-02-08T11:34:15.297Z,78.21
2019-02-08T11:39:18.272Z,78.35
2019-02-08T11:44:21.184Z,78.30
2019-02-08T11:49:23.213Z,79.35
2019-02-08T11:54:25.979Z,78.74
2019-02-08T11:59:28.250Z,78.60
2019-02-08T12:04:30.696Z,78.87
2019-02-08T12:09:32.803Z,79.33
2019-02-08T12:14:35.149Z,79.43
2019-02-08T12:19:37.218Z,79.35
2019-02-08T12:24:39.525Z,79.47
2019-02-08T12:29:41.538Z,78.53
2019-02-08T12:34:43.652Z,78.28
2019-02-08T12:39:49.931Z,78.25
2019-02-08T12:44:53.337Z,77.72
2019-02-08T12:49:55.449Z,77.50
2019-02-08T12:55:00.903Z,77.51
2019-02-08T13:00:04.002Z,77.54
2019-02-08T13:05:07.330Z,76.64
2019-02-08T13:10:13.491Z,76.13
2019-02-08T13:15:15.938Z,75.65
2019-02-08T13:20:18.153Z,75.90
2019-02-08T13:25:20.379Z,75.46
2019-02-08T13:30:24.792Z,75.83
2019-02-08T13:35:28.398Z,75.15
2019-02-08T13:40:30.452Z,75.41
2019-02-08T13:45:32.570Z,74.86
2019-02-08T13:50:34.579Z,74.68
2019-02-08T13:55:36.852Z,74.51
2019-02-08T14:00:43.357Z,74.26
2019-02-08T14:05:45.760Z,74.60
2019-02-08T14:10:48.041Z,74.93
2019-02-08T14:15:50.350Z,73.71
2019-02-08T14:20:52.369Z,74.04
2019-02-08T14:25:55.380Z,74.26
2019-02-08T14:30:57.450Z,73.93
2019-02-08T14:36:01.374Z,73.83
2019-02-08T14:41:03.667Z,73.63
2019-02-08T14:46:05.981Z,73.19
2019-02-08T14:51:09.988Z,73.54
2019-02-08T14:56:12.396Z,73.53
2019-02-08T15:01:16.255Z,73.30
2019-02-08T15:06:18.420Z,73.30
2019-02-08T15:11:20.454Z,72.96
2019-02-08T15:16:22.690Z,72.88
2019-02-08T15:21:24.720Z,73.81
2019-02-08T15:26:26.931Z,72.74
2019-02-08T15:31:30.636Z,73.02
2019-02-08T15:36:32.766Z,72.89
2019-02-08T15:41:35.953Z,72.78
2019-02-08T15:46:38.319Z,73.03
2019-02-08T15:51:40.478Z,72.90
2019-02-08T15:56:42.511Z,72.78
2019-02-08T16:01:47.317Z,72.92
2019-02-08T16:06:49.692Z,72.54
2019-02-08T16:11:52.607Z,72.91
2019-02-08T16:16:54.790Z,72.81
2019-02-08T16:21:56.859Z,72.95
2019-02-08T16:26:59.028Z,72.21
2019-02-08T16:32:01.046Z,72.85
2019-02-08T16:37:03.841Z,72.20
2019-02-08T16:42:07.643Z,71.82
2019-02-08T16:47:10.080Z,72.12
2019-02-08T16:52:15.154Z,72.59
2019-02-08T16:57:18.017Z,72.30
2019-02-08T17:02:20.038Z,72.32
2019-02-08T17:07:22.301Z,71.88
2019-02-08T17:12:24.327Z,71.73
2019-02-08T17:17:26.534Z,72.20
2019-02-08T17:22:33.238Z,71.76
2019-02-08T17:27:35.370Z,71.81
2019-02-08T17:32:37.426Z,71.74
2019-02-08T17:37:39.814Z,71.70
2019-02-08T17:42:41.957Z,72.05
2019-02-08T17:47:44.223Z,72.04
2019-02-08T17:52:46.212Z,72.40
2019-02-08T17:57:50.313Z,72.25
2019-02-08T18:02:57.352Z,72.19
2019-02-08T18:07:59.409Z,72.50
2019-02-08T18:13:06.619Z,72.87
2019-02-08T18:18:10.970Z,72.75
2019-02-08T18:23:18.039Z,72.97
2019-02-08T18:28:21.859Z,72.86
2019-02-08T18:33:24.178Z,72.83
2019-02-08T18:38:26.203Z,72.96
2019-02-08T18:43:28.351Z,72.76
2019-02-08T18:48:32.228Z,73.08
2019-02-08T18:53:34.247Z,73.72
2019-02-08T18:58:36.250Z,75.41
2019-02-08T19:03:40.618Z,77.03
2019-02-08T19:08:42.653Z,78.60
2019-02-08T19:13:44.715Z,80.04
2019-02-08T19:18:46.696Z,80.78
2019-02-08T19:23:49.933Z,80.37
2019-02-08T19:28:52.024Z,81.39
2019-02-08T19:33:54.065Z,80.17
2019-02-08T19:38:56.157Z,80.31
2019-02-08T19:43:58.340Z,80.64
2019-02-08T19:49:00.351Z,80.34
2019-02-08T19:54:02.606Z,80.58
2019-02-08T19:59:07.147Z,79.36
2019-02-08T20:04:09.337Z,80.40
2019-02-08T20:09:11.410Z,81.36
2019-02-08T20:14:14.524Z,80.67
2019-02-08T20:19:18.140Z,82.01
2019-02-08T20:24:20.344Z,81.41
2019-02-08T20:29:22.356Z,81.13
2019-02-08T20:34:25.010Z,80.62
2019-02-08T20:39:27.059Z,81.10
2019-02-08T20:44:29.308Z,81.17
2019-02-08T20:49:33.479Z,81.01
2019-02-08T20:54:36.254Z,80.43
2019-02-08T20:59:40.275Z,80.43
2019-02-08T21:04:42.297Z,80.89
2019-02-08T21:09:46.240Z,79.74
2019-02-08T21:14:48.269Z,79.47
2019-02-08T21:19:52.461Z,79.64
2019-02-08T21:24:54.546Z,79.27
2019-02-08T21:29:56.537Z,79.01
2019-02-08T21:34:58.790Z,79.53
2019-02-08T21:40:04.800Z,79.28
2019-02-08T21:45:10.473Z,79.61
2019-02-08T21:50:13.883Z,79.01
2019-02-08T21:55:17.289Z,79.64
2019-02-08T22:00:21.624Z,79.64
2019-02-08T22:05:26.560Z,79.02
2019-02-08T22:10:28.631Z,79.40
2019-02-08T22:15:32.312Z,78.62
2019-02-08T22:20:34.433Z,78.12
2019-02-08T22:25:40.493Z,77.81
2019-02-08T22:30:42.548Z,79.10
2019-02-08T22:35:49.662Z,78.78
2019-02-08T22:40:51.711Z,77.97
2019-02-08T22:45:54.006Z,78.19
2019-02-08T22:51:00.943Z,77.98
2019-02-08T22:56:08.016Z,78.40
2019-02-08T23:01:35.592Z,77.68
2019-02-08T23:06:51.330Z,77.64
2019-02-08T23:11:53.455Z,77.46
2019-02-08T23:16:56.149Z,77.65
2019-02-08T23:21:58.242Z,77.11
2019-02-08T23:27:02.771Z,76.87
2019-02-08T23:32:04.809Z,78.39
2019-02-08T23:37:11.067Z,78.51
2019-02-08T23:42:13.054Z,79.80
2019-02-08T23:47:15.518Z,79.58
2019-02-08T23:52:17.521Z,78.87
2019-02-08T23:57:19.709Z,77.59
